PRRHJ SBPS-SBBH
Flight info
| Callsign | PRRHJ |
|---|---|
| Flight time | 2h 6m |
| Altitude | 10000 |
| Route | EDRAG DCT PULKU DCT 193600S0431240W/N0178F055 VFR |
| Aircraft | BE58/L-SDFGRY/LB1 |
Departure
| Time | 2026-04-22 20:32 |
|---|---|
| Airport | Porto Seguro International Airport (SBPS) |
Arrival
| Time | 2026-04-22 22:38 |
|---|---|
| Airport | Pampulha - Carlos Drummond de Andrade Airport (SBBH) |
| Time | Latitude | Longitude | Altitude | Speed | Heading |
|---|---|---|---|---|---|
| 2026-04-22 20:19 | -16.43824 | -39.07555 | 154 ft | 0 kts | 168° |
| 2026-04-22 20:26 | -16.43835 | -39.07553 | 154 ft | 4 kts | 195° |
| 2026-04-22 20:26 | -16.43856 | -39.07609 | 154 ft | 12 kts | 250° |
| 2026-04-22 20:27 | -16.43795 | -39.07652 | 156 ft | 0 kts | 349° |
| 2026-04-22 20:28 | -16.43773 | -39.07655 | 156 ft | 8 kts | 357° |
| 2026-04-22 20:29 | -16.43756 | -39.07728 | 156 ft | 19 kts | 250° |
| 2026-04-22 20:29 | -16.43802 | -39.07893 | 154 ft | 28 kts | 257° |
| 2026-04-22 20:29 | -16.43828 | -39.08002 | 153 ft | 7 kts | 256° |
| 2026-04-22 20:29 | -16.43853 | -39.08093 | 154 ft | 16 kts | 252° |
| 2026-04-22 20:30 | -16.43890 | -39.08227 | 153 ft | 22 kts | 257° |
| 2026-04-22 20:30 | -16.43936 | -39.08402 | 152 ft | 28 kts | 254° |
| 2026-04-22 20:30 | -16.43983 | -39.08576 | 153 ft | 25 kts | 248° |
| 2026-04-22 20:30 | -16.44029 | -39.08760 | 154 ft | 24 kts | 253° |
| 2026-04-22 20:31 | -16.44063 | -39.08873 | 155 ft | 7 kts | 140° |
| 2026-04-22 20:31 | -16.44062 | -39.08857 | 155 ft | 6 kts | 77° |
| 2026-04-22 20:31 | -16.43977 | -39.08532 | 153 ft | 83 kts | 75° |
| 2026-04-22 20:31 | -16.43748 | -39.07827 | 241 ft | 117 kts | 78° |
| 2026-04-22 20:32 | -16.43526 | -39.07008 | 699 ft | 111 kts | 79° |
| 2026-04-22 20:32 | -16.43276 | -39.06260 | 1132 ft | 114 kts | 72° |
| 2026-04-22 20:32 | -16.42901 | -39.05513 | 1424 ft | 116 kts | 88° |
| 2026-04-22 20:32 | -16.42872 | -39.04676 | 1726 ft | 117 kts | 82° |
| 2026-04-22 20:33 | -16.42678 | -39.03868 | 2007 ft | 116 kts | 82° |
| 2026-04-22 20:33 | -16.42737 | -39.03057 | 2290 ft | 110 kts | 122° |
| 2026-04-22 20:33 | -16.43265 | -39.02511 | 2565 ft | 108 kts | 155° |
| 2026-04-22 20:33 | -16.44000 | -39.02409 | 2831 ft | 111 kts | 178° |
| 2026-04-22 20:34 | -16.44772 | -39.02413 | 3090 ft | 111 kts | 176° |
| 2026-04-22 20:34 | -16.45547 | -39.02415 | 3350 ft | 111 kts | 176° |
| 2026-04-22 20:34 | -16.46323 | -39.02418 | 3584 ft | 111 kts | 178° |
| 2026-04-22 20:34 | -16.47094 | -39.02420 | 3828 ft | 110 kts | 177° |
| 2026-04-22 20:35 | -16.47862 | -39.02472 | 4055 ft | 114 kts | 197° |
| 2026-04-22 20:35 | -16.48428 | -39.03078 | 4269 ft | 122 kts | 235° |
| 2026-04-22 20:35 | -16.48853 | -39.03838 | 4511 ft | 120 kts | 233° |
| 2026-04-22 20:35 | -16.49284 | -39.04586 | 4720 ft | 120 kts | 234° |
| 2026-04-22 20:36 | -16.49714 | -39.05341 | 4930 ft | 123 kts | 233° |
| 2026-04-22 20:36 | -16.50153 | -39.06110 | 5178 ft | 125 kts | 234° |
| 2026-04-22 20:36 | -16.50600 | -39.06895 | 5427 ft | 126 kts | 233° |
| 2026-04-22 20:36 | -16.50900 | -39.07421 | 5606 ft | 126 kts | 234° |
| 2026-04-22 20:37 | -16.51502 | -39.08475 | 5954 ft | 127 kts | 233° |
| 2026-04-22 20:37 | -16.51953 | -39.09268 | 6215 ft | 127 kts | 235° |
| 2026-04-22 20:37 | -16.52396 | -39.10046 | 6462 ft | 126 kts | 234° |
| 2026-04-22 20:37 | -16.52846 | -39.10835 | 6704 ft | 126 kts | 235° |
| 2026-04-22 20:38 | -16.53294 | -39.11618 | 6931 ft | 126 kts | 235° |
| 2026-04-22 20:38 | -16.53597 | -39.12149 | 7082 ft | 126 kts | 236° |
| 2026-04-22 20:38 | -16.54612 | -39.13928 | 7588 ft | 126 kts | 236° |
| 2026-04-22 20:39 | -16.55054 | -39.14703 | 7814 ft | 126 kts | 236° |
| 2026-04-22 20:39 | -16.55502 | -39.15488 | 8036 ft | 126 kts | 237° |
| 2026-04-22 20:39 | -16.55958 | -39.16286 | 8212 ft | 130 kts | 237° |
| 2026-04-22 20:39 | -16.56423 | -39.17104 | 8387 ft | 132 kts | 238° |
| 2026-04-22 20:40 | -16.56895 | -39.17933 | 8564 ft | 133 kts | 237° |
| 2026-04-22 20:40 | -16.57371 | -39.18767 | 8742 ft | 134 kts | 238° |
| 2026-04-22 20:40 | -16.57843 | -39.19595 | 8915 ft | 134 kts | 238° |
| 2026-04-22 20:40 | -16.58320 | -39.20432 | 9090 ft | 134 kts | 239° |
| 2026-04-22 20:41 | -16.58793 | -39.21262 | 9258 ft | 133 kts | 239° |
| 2026-04-22 20:41 | -16.59263 | -39.22087 | 9433 ft | 131 kts | 239° |
| 2026-04-22 20:41 | -16.59728 | -39.22903 | 9604 ft | 130 kts | 239° |
| 2026-04-22 20:41 | -16.60185 | -39.23705 | 9772 ft | 127 kts | 239° |
| 2026-04-22 20:42 | -16.60633 | -39.24492 | 9939 ft | 125 kts | 240° |
| 2026-04-22 20:42 | -16.61077 | -39.25271 | 10049 ft | 127 kts | 240° |
| 2026-04-22 20:42 | -16.61539 | -39.26084 | 10060 ft | 136 kts | 240° |
| 2026-04-22 20:42 | -16.62038 | -39.26961 | 10064 ft | 144 kts | 240° |
| 2026-04-22 20:43 | -16.62560 | -39.27880 | 10069 ft | 150 kts | 240° |
| 2026-04-22 20:43 | -16.63104 | -39.28835 | 10062 ft | 155 kts | 240° |
| 2026-04-22 20:43 | -16.63660 | -39.29813 | 10062 ft | 159 kts | 240° |
| 2026-04-22 20:43 | -16.64231 | -39.30816 | 10062 ft | 162 kts | 240° |
| 2026-04-22 20:44 | -16.64803 | -39.31821 | 10064 ft | 164 kts | 240° |
| 2026-04-22 20:44 | -16.65387 | -39.32847 | 10061 ft | 165 kts | 240° |
| 2026-04-22 20:44 | -16.65959 | -39.33852 | 10178 ft | 158 kts | 240° |
| 2026-04-22 20:44 | -16.66519 | -39.34838 | 10179 ft | 161 kts | 240° |
| 2026-04-22 20:45 | -16.67104 | -39.35867 | 10092 ft | 169 kts | 240° |
| 2026-04-22 20:45 | -16.67710 | -39.36933 | 10060 ft | 171 kts | 240° |
| 2026-04-22 20:45 | -16.68314 | -39.37995 | 10061 ft | 170 kts | 240° |
| 2026-04-22 20:45 | -16.68921 | -39.39063 | 10062 ft | 170 kts | 240° |
| 2026-04-22 20:46 | -16.70121 | -39.41179 | 10060 ft | 170 kts | 239° |
| 2026-04-22 20:46 | -16.70730 | -39.42246 | 10059 ft | 171 kts | 240° |
| 2026-04-22 20:46 | -16.71337 | -39.43312 | 10058 ft | 171 kts | 240° |
| 2026-04-22 20:47 | -16.71740 | -39.44018 | 10058 ft | 171 kts | 239° |
| 2026-04-22 20:47 | -16.72350 | -39.45084 | 10059 ft | 171 kts | 239° |
| 2026-04-22 20:47 | -16.72962 | -39.46152 | 10057 ft | 171 kts | 239° |
| 2026-04-22 20:47 | -16.73776 | -39.47566 | 10063 ft | 171 kts | 239° |
| 2026-04-22 20:48 | -16.74192 | -39.48287 | 10066 ft | 172 kts | 239° |
| 2026-04-22 20:48 | -16.74811 | -39.49353 | 10063 ft | 172 kts | 239° |
| 2026-04-22 20:48 | -16.75432 | -39.50419 | 10062 ft | 172 kts | 239° |
| 2026-04-22 20:48 | -16.76049 | -39.51475 | 10062 ft | 172 kts | 239° |
| 2026-04-22 20:49 | -16.76674 | -39.52542 | 10063 ft | 172 kts | 239° |
| 2026-04-22 20:49 | -16.77301 | -39.53609 | 10063 ft | 172 kts | 239° |
| 2026-04-22 20:49 | -16.77927 | -39.54672 | 10060 ft | 172 kts | 239° |
| 2026-04-22 20:49 | -16.78554 | -39.55734 | 10060 ft | 172 kts | 239° |
| 2026-04-22 20:50 | -16.79180 | -39.56793 | 10063 ft | 172 kts | 239° |
| 2026-04-22 20:50 | -16.79811 | -39.57855 | 10062 ft | 172 kts | 239° |
| 2026-04-22 20:50 | -16.80442 | -39.58915 | 10063 ft | 172 kts | 239° |
| 2026-04-22 20:50 | -16.81069 | -39.59968 | 10062 ft | 172 kts | 239° |
| 2026-04-22 20:51 | -16.81703 | -39.61030 | 10061 ft | 172 kts | 239° |
| 2026-04-22 20:51 | -16.82339 | -39.62092 | 10065 ft | 172 kts | 239° |
| 2026-04-22 20:51 | -16.82974 | -39.63150 | 10063 ft | 172 kts | 239° |
| 2026-04-22 20:51 | -16.83613 | -39.64211 | 10065 ft | 173 kts | 239° |
| 2026-04-22 20:52 | -16.84253 | -39.65273 | 10067 ft | 173 kts | 239° |
| 2026-04-22 20:52 | -16.84894 | -39.66336 | 10066 ft | 173 kts | 239° |
| 2026-04-22 20:52 | -16.85539 | -39.67401 | 10064 ft | 173 kts | 239° |
| 2026-04-22 20:52 | -16.86176 | -39.68448 | 10064 ft | 173 kts | 239° |
| 2026-04-22 20:53 | -16.86821 | -39.69505 | 10065 ft | 173 kts | 239° |
| 2026-04-22 20:53 | -16.87468 | -39.70564 | 10066 ft | 173 kts | 238° |
| 2026-04-22 20:53 | -16.88115 | -39.71621 | 10064 ft | 173 kts | 238° |
| 2026-04-22 20:53 | -16.88765 | -39.72681 | 10065 ft | 173 kts | 238° |
| 2026-04-22 20:54 | -16.89416 | -39.73740 | 10063 ft | 173 kts | 239° |
| 2026-04-22 20:54 | -16.90068 | -39.74797 | 10063 ft | 173 kts | 238° |
| 2026-04-22 20:54 | -16.90723 | -39.75854 | 10065 ft | 173 kts | 238° |
| 2026-04-22 20:54 | -16.91377 | -39.76909 | 10064 ft | 173 kts | 238° |
| 2026-04-22 20:55 | -16.92025 | -39.77951 | 10067 ft | 173 kts | 238° |
| 2026-04-22 20:55 | -16.92681 | -39.79005 | 10066 ft | 173 kts | 238° |
| 2026-04-22 20:55 | -16.93337 | -39.80058 | 10066 ft | 173 kts | 238° |
| 2026-04-22 20:55 | -16.93996 | -39.81111 | 10068 ft | 173 kts | 238° |
| 2026-04-22 20:56 | -16.94657 | -39.82166 | 10067 ft | 173 kts | 238° |
| 2026-04-22 20:56 | -16.95318 | -39.83222 | 10068 ft | 174 kts | 238° |
| 2026-04-22 20:56 | -16.95981 | -39.84277 | 10068 ft | 174 kts | 238° |
| 2026-04-22 20:56 | -16.96648 | -39.85337 | 10071 ft | 174 kts | 238° |
| 2026-04-22 20:57 | -16.97306 | -39.86378 | 10072 ft | 174 kts | 238° |
| 2026-04-22 20:57 | -16.97976 | -39.87435 | 10067 ft | 174 kts | 238° |
| 2026-04-22 20:57 | -16.98645 | -39.88485 | 10067 ft | 173 kts | 238° |
| 2026-04-22 20:57 | -16.99315 | -39.89534 | 10068 ft | 174 kts | 238° |
| 2026-04-22 20:58 | -16.99986 | -39.90586 | 10071 ft | 174 kts | 238° |
| 2026-04-22 20:58 | -17.00657 | -39.91637 | 10070 ft | 174 kts | 238° |
| 2026-04-22 20:58 | -17.01330 | -39.92690 | 10069 ft | 174 kts | 238° |
| 2026-04-22 20:58 | -17.02009 | -39.93748 | 10072 ft | 175 kts | 238° |
| 2026-04-22 20:59 | -17.02690 | -39.94808 | 10072 ft | 175 kts | 238° |
| 2026-04-22 20:59 | -17.03370 | -39.95863 | 10073 ft | 175 kts | 238° |
| 2026-04-22 20:59 | -17.04050 | -39.96916 | 10067 ft | 174 kts | 238° |
| 2026-04-22 20:59 | -17.04726 | -39.97962 | 10072 ft | 172 kts | 238° |
| 2026-04-22 21:00 | -17.05389 | -39.98987 | 10071 ft | 173 kts | 238° |
| 2026-04-22 21:00 | -17.06068 | -40.00032 | 10065 ft | 173 kts | 237° |
| 2026-04-22 21:00 | -17.06744 | -40.01071 | 10070 ft | 173 kts | 237° |
| 2026-04-22 21:00 | -17.07422 | -40.02108 | 10069 ft | 173 kts | 237° |
| 2026-04-22 21:01 | -17.08101 | -40.03145 | 10069 ft | 172 kts | 237° |
| 2026-04-22 21:01 | -17.08781 | -40.04180 | 10066 ft | 173 kts | 237° |
| 2026-04-22 21:01 | -17.09452 | -40.05202 | 10065 ft | 173 kts | 237° |
| 2026-04-22 21:01 | -17.10136 | -40.06239 | 10066 ft | 172 kts | 237° |
| 2026-04-22 21:02 | -17.10818 | -40.07273 | 10066 ft | 172 kts | 237° |
| 2026-04-22 21:02 | -17.11500 | -40.08303 | 10072 ft | 172 kts | 237° |
| 2026-04-22 21:02 | -17.12209 | -40.09314 | 10069 ft | 173 kts | 231° |
| 2026-04-22 21:02 | -17.13035 | -40.10217 | 10069 ft | 172 kts | 224° |
| 2026-04-22 21:03 | -17.13932 | -40.11048 | 10065 ft | 172 kts | 223° |
| 2026-04-22 21:03 | -17.14833 | -40.11871 | 10070 ft | 172 kts | 222° |
| 2026-04-22 21:03 | -17.15723 | -40.12679 | 10068 ft | 172 kts | 218° |
| 2026-04-22 21:03 | -17.16808 | -40.13203 | 10072 ft | 172 kts | 202° |
| 2026-04-22 21:04 | -17.17866 | -40.13783 | 10068 ft | 171 kts | 219° |
| 2026-04-22 21:04 | -17.18706 | -40.14659 | 10070 ft | 171 kts | 230° |
| 2026-04-22 21:04 | -17.19486 | -40.15596 | 10073 ft | 170 kts | 230° |
| 2026-04-22 21:04 | -17.20271 | -40.16525 | 10073 ft | 170 kts | 229° |
| 2026-04-22 21:05 | -17.21058 | -40.17451 | 10070 ft | 170 kts | 229° |
| 2026-04-22 21:05 | -17.21836 | -40.18367 | 10073 ft | 170 kts | 230° |
| 2026-04-22 21:05 | -17.22622 | -40.19291 | 10070 ft | 170 kts | 229° |
| 2026-04-22 21:05 | -17.23410 | -40.20217 | 10070 ft | 170 kts | 230° |
| 2026-04-22 21:06 | -17.24195 | -40.21141 | 10071 ft | 169 kts | 229° |
| 2026-04-22 21:06 | -17.24980 | -40.22064 | 10069 ft | 169 kts | 229° |
| 2026-04-22 21:06 | -17.25763 | -40.22985 | 10065 ft | 169 kts | 229° |
| 2026-04-22 21:06 | -17.26547 | -40.23907 | 10067 ft | 169 kts | 229° |
| 2026-04-22 21:07 | -17.27319 | -40.24816 | 10065 ft | 169 kts | 229° |
| 2026-04-22 21:07 | -17.28110 | -40.25747 | 10069 ft | 173 kts | 229° |
| 2026-04-22 21:07 | -17.28921 | -40.26700 | 10074 ft | 177 kts | 229° |
| 2026-04-22 21:07 | -17.29749 | -40.27677 | 10073 ft | 179 kts | 229° |
| 2026-04-22 21:08 | -17.30578 | -40.28657 | 10067 ft | 180 kts | 229° |
| 2026-04-22 21:08 | -17.31413 | -40.29638 | 10068 ft | 181 kts | 229° |
| 2026-04-22 21:08 | -17.32250 | -40.30622 | 10070 ft | 181 kts | 229° |
| 2026-04-22 21:08 | -17.33090 | -40.31611 | 10068 ft | 182 kts | 229° |
| 2026-04-22 21:09 | -17.33923 | -40.32591 | 10068 ft | 183 kts | 229° |
| 2026-04-22 21:09 | -17.34767 | -40.33587 | 10067 ft | 183 kts | 229° |
| 2026-04-22 21:09 | -17.35614 | -40.34584 | 10068 ft | 183 kts | 229° |
| 2026-04-22 21:09 | -17.36459 | -40.35580 | 10067 ft | 183 kts | 229° |
| 2026-04-22 21:10 | -17.37305 | -40.36577 | 10064 ft | 183 kts | 229° |
| 2026-04-22 21:10 | -17.38149 | -40.37572 | 10064 ft | 183 kts | 229° |
| 2026-04-22 21:10 | -17.38992 | -40.38566 | 10066 ft | 183 kts | 229° |
| 2026-04-22 21:10 | -17.39826 | -40.39550 | 10066 ft | 182 kts | 229° |
| 2026-04-22 21:11 | -17.40670 | -40.40545 | 10066 ft | 182 kts | 229° |
| 2026-04-22 21:11 | -17.41514 | -40.41540 | 10070 ft | 182 kts | 229° |
| 2026-04-22 21:11 | -17.42355 | -40.42533 | 10066 ft | 183 kts | 230° |
| 2026-04-22 21:11 | -17.43201 | -40.43531 | 10070 ft | 183 kts | 229° |
| 2026-04-22 21:12 | -17.44045 | -40.44528 | 10068 ft | 183 kts | 229° |
| 2026-04-22 21:12 | -17.44891 | -40.45525 | 10070 ft | 183 kts | 229° |
| 2026-04-22 21:12 | -17.45736 | -40.46523 | 10067 ft | 182 kts | 229° |
| 2026-04-22 21:12 | -17.46577 | -40.47518 | 10066 ft | 182 kts | 229° |
| 2026-04-22 21:13 | -17.47410 | -40.48499 | 10067 ft | 182 kts | 230° |
| 2026-04-22 21:13 | -17.48252 | -40.49494 | 10067 ft | 182 kts | 230° |
| 2026-04-22 21:13 | -17.49096 | -40.50491 | 10066 ft | 183 kts | 230° |
| 2026-04-22 21:13 | -17.49938 | -40.51487 | 10068 ft | 182 kts | 230° |
| 2026-04-22 21:14 | -17.50783 | -40.52484 | 10067 ft | 183 kts | 229° |
| 2026-04-22 21:14 | -17.51626 | -40.53481 | 10068 ft | 182 kts | 229° |
| 2026-04-22 21:14 | -17.52468 | -40.54475 | 10066 ft | 182 kts | 230° |
| 2026-04-22 21:14 | -17.53311 | -40.55472 | 10067 ft | 182 kts | 230° |
| 2026-04-22 21:15 | -17.54153 | -40.56468 | 10067 ft | 182 kts | 229° |
| 2026-04-22 21:15 | -17.54995 | -40.57464 | 10064 ft | 182 kts | 229° |
| 2026-04-22 21:15 | -17.55825 | -40.58445 | 10066 ft | 182 kts | 229° |
| 2026-04-22 21:15 | -17.56666 | -40.59440 | 10067 ft | 182 kts | 229° |
| 2026-04-22 21:16 | -17.57510 | -40.60438 | 10065 ft | 182 kts | 230° |
| 2026-04-22 21:16 | -17.58353 | -40.61435 | 10063 ft | 182 kts | 229° |
| 2026-04-22 21:16 | -17.59196 | -40.62433 | 10067 ft | 183 kts | 230° |
| 2026-04-22 21:16 | -17.60031 | -40.63422 | 10067 ft | 183 kts | 230° |
| 2026-04-22 21:17 | -17.60874 | -40.64420 | 10066 ft | 183 kts | 230° |
| 2026-04-22 21:17 | -17.61721 | -40.65422 | 10064 ft | 183 kts | 230° |
| 2026-04-22 21:17 | -17.62564 | -40.66421 | 10064 ft | 183 kts | 230° |
| 2026-04-22 21:17 | -17.63409 | -40.67421 | 10069 ft | 183 kts | 230° |
| 2026-04-22 21:18 | -17.64254 | -40.68422 | 10067 ft | 183 kts | 230° |
| 2026-04-22 21:18 | -17.65088 | -40.69409 | 10066 ft | 183 kts | 230° |
| 2026-04-22 21:18 | -17.65935 | -40.70413 | 10069 ft | 183 kts | 230° |
| 2026-04-22 21:18 | -17.66783 | -40.71417 | 10067 ft | 184 kts | 230° |
| 2026-04-22 21:19 | -17.67630 | -40.72422 | 10067 ft | 183 kts | 230° |
| 2026-04-22 21:19 | -17.68476 | -40.73424 | 10065 ft | 183 kts | 230° |
| 2026-04-22 21:19 | -17.69320 | -40.74426 | 10066 ft | 183 kts | 230° |
| 2026-04-22 21:19 | -17.70165 | -40.75428 | 10066 ft | 183 kts | 230° |
| 2026-04-22 21:20 | -17.71011 | -40.76431 | 10064 ft | 183 kts | 230° |
| 2026-04-22 21:20 | -17.71847 | -40.77422 | 10057 ft | 183 kts | 230° |
| 2026-04-22 21:20 | -17.72693 | -40.78426 | 10056 ft | 183 kts | 230° |
| 2026-04-22 21:20 | -17.73539 | -40.79429 | 10059 ft | 183 kts | 230° |
| 2026-04-22 21:21 | -17.74383 | -40.80431 | 10062 ft | 183 kts | 230° |
| 2026-04-22 21:21 | -17.75228 | -40.81434 | 10057 ft | 183 kts | 230° |
| 2026-04-22 21:21 | -17.76072 | -40.82436 | 10060 ft | 183 kts | 230° |
| 2026-04-22 21:21 | -17.76917 | -40.83438 | 10057 ft | 183 kts | 229° |
| 2026-04-22 21:22 | -17.77761 | -40.84441 | 10058 ft | 183 kts | 230° |
| 2026-04-22 21:22 | -17.78606 | -40.85445 | 10058 ft | 183 kts | 230° |
| 2026-04-22 21:22 | -17.79439 | -40.86434 | 10059 ft | 183 kts | 230° |
| 2026-04-22 21:22 | -17.80285 | -40.87439 | 10057 ft | 183 kts | 230° |
| 2026-04-22 21:23 | -17.81128 | -40.88441 | 10057 ft | 183 kts | 230° |
| 2026-04-22 21:23 | -17.81973 | -40.89444 | 10062 ft | 183 kts | 230° |
| 2026-04-22 21:23 | -17.82817 | -40.90448 | 10059 ft | 183 kts | 230° |
| 2026-04-22 21:23 | -17.83660 | -40.91450 | 10057 ft | 183 kts | 230° |
| 2026-04-22 21:24 | -17.84504 | -40.92452 | 10058 ft | 183 kts | 230° |
| 2026-04-22 21:24 | -17.85347 | -40.93456 | 10062 ft | 183 kts | 230° |
| 2026-04-22 21:24 | -17.86194 | -40.94463 | 10059 ft | 183 kts | 230° |
| 2026-04-22 21:24 | -17.87031 | -40.95459 | 10058 ft | 183 kts | 230° |
| 2026-04-22 21:25 | -17.87876 | -40.96464 | 10059 ft | 183 kts | 230° |
| 2026-04-22 21:25 | -17.88720 | -40.97469 | 10061 ft | 183 kts | 230° |
| 2026-04-22 21:25 | -17.89567 | -40.98476 | 10061 ft | 183 kts | 230° |
| 2026-04-22 21:25 | -17.90412 | -40.99482 | 10062 ft | 184 kts | 230° |
| 2026-04-22 21:26 | -17.91258 | -41.00488 | 10064 ft | 184 kts | 230° |
| 2026-04-22 21:26 | -17.92105 | -41.01498 | 10061 ft | 184 kts | 230° |
| 2026-04-22 21:26 | -17.92944 | -41.02495 | 10063 ft | 184 kts | 230° |
| 2026-04-22 21:26 | -17.93789 | -41.03501 | 10063 ft | 184 kts | 230° |
| 2026-04-22 21:27 | -17.94640 | -41.04515 | 10062 ft | 184 kts | 230° |
| 2026-04-22 21:27 | -17.95489 | -41.05527 | 10063 ft | 184 kts | 230° |
| 2026-04-22 21:27 | -17.96326 | -41.06525 | 10064 ft | 184 kts | 230° |
| 2026-04-22 21:27 | -17.97174 | -41.07535 | 10062 ft | 184 kts | 230° |
| 2026-04-22 21:28 | -17.98020 | -41.08544 | 10063 ft | 184 kts | 230° |
| 2026-04-22 21:28 | -17.98870 | -41.09556 | 10064 ft | 184 kts | 230° |
| 2026-04-22 21:28 | -17.99705 | -41.10553 | 10065 ft | 184 kts | 230° |
| 2026-04-22 21:28 | -18.00554 | -41.11564 | 10063 ft | 184 kts | 230° |
| 2026-04-22 21:29 | -18.01403 | -41.12577 | 10067 ft | 184 kts | 230° |
| 2026-04-22 21:29 | -18.01967 | -41.13249 | 10065 ft | 184 kts | 230° |
| 2026-04-22 21:29 | -18.02815 | -41.14261 | 10067 ft | 184 kts | 230° |
| 2026-04-22 21:29 | -18.03662 | -41.15272 | 10067 ft | 184 kts | 230° |
| 2026-04-22 21:30 | -18.04511 | -41.16285 | 10066 ft | 184 kts | 230° |
| 2026-04-22 21:30 | -18.05346 | -41.17281 | 10063 ft | 184 kts | 230° |
| 2026-04-22 21:30 | -18.06191 | -41.18289 | 10063 ft | 183 kts | 230° |
| 2026-04-22 21:30 | -18.07034 | -41.19297 | 10065 ft | 184 kts | 230° |
| 2026-04-22 21:31 | -18.07881 | -41.20308 | 10065 ft | 184 kts | 230° |
| 2026-04-22 21:31 | -18.08725 | -41.21314 | 10066 ft | 184 kts | 230° |
| 2026-04-22 21:31 | -18.09567 | -41.22321 | 10066 ft | 183 kts | 230° |
| 2026-04-22 21:31 | -18.10413 | -41.23333 | 10062 ft | 183 kts | 230° |
| 2026-04-22 21:32 | -18.11253 | -41.24336 | 10064 ft | 183 kts | 230° |
| 2026-04-22 21:32 | -18.12086 | -41.25331 | 10064 ft | 183 kts | 230° |
| 2026-04-22 21:32 | -18.12928 | -41.26337 | 10062 ft | 183 kts | 230° |
| 2026-04-22 21:32 | -18.13774 | -41.27349 | 10064 ft | 184 kts | 230° |
| 2026-04-22 21:33 | -18.14620 | -41.28360 | 10066 ft | 184 kts | 230° |
| 2026-04-22 21:33 | -18.15457 | -41.29361 | 10069 ft | 184 kts | 230° |
| 2026-04-22 21:33 | -18.16301 | -41.30369 | 10068 ft | 184 kts | 230° |
| 2026-04-22 21:33 | -18.17151 | -41.31387 | 10068 ft | 184 kts | 230° |
| 2026-04-22 21:34 | -18.17997 | -41.32398 | 10072 ft | 184 kts | 230° |
| 2026-04-22 21:34 | -18.18841 | -41.33407 | 10067 ft | 184 kts | 230° |
| 2026-04-22 21:34 | -18.19689 | -41.34424 | 10067 ft | 184 kts | 230° |
| 2026-04-22 21:34 | -18.20535 | -41.35436 | 10067 ft | 184 kts | 230° |
| 2026-04-22 21:35 | -18.21372 | -41.36436 | 10067 ft | 184 kts | 230° |
| 2026-04-22 21:35 | -18.22217 | -41.37449 | 10067 ft | 184 kts | 230° |
| 2026-04-22 21:35 | -18.23066 | -41.38467 | 10067 ft | 185 kts | 230° |
| 2026-04-22 21:35 | -18.23915 | -41.39483 | 10068 ft | 185 kts | 230° |
| 2026-04-22 21:36 | -18.24758 | -41.40493 | 10067 ft | 185 kts | 230° |
| 2026-04-22 21:36 | -18.25609 | -41.41511 | 10066 ft | 185 kts | 230° |
| 2026-04-22 21:36 | -18.26456 | -41.42528 | 10069 ft | 184 kts | 230° |
| 2026-04-22 21:36 | -18.27302 | -41.43541 | 10066 ft | 184 kts | 230° |
| 2026-04-22 21:37 | -18.28150 | -41.44558 | 10066 ft | 184 kts | 230° |
| 2026-04-22 21:37 | -18.28995 | -41.45570 | 10064 ft | 184 kts | 229° |
| 2026-04-22 21:37 | -18.29840 | -41.46584 | 10067 ft | 184 kts | 230° |
| 2026-04-22 21:37 | -18.30678 | -41.47589 | 10067 ft | 184 kts | 229° |
| 2026-04-22 21:38 | -18.31524 | -41.48604 | 10061 ft | 184 kts | 229° |
| 2026-04-22 21:38 | -18.32366 | -41.49614 | 10063 ft | 184 kts | 230° |
| 2026-04-22 21:38 | -18.33210 | -41.50625 | 10065 ft | 184 kts | 229° |
| 2026-04-22 21:38 | -18.34055 | -41.51639 | 10063 ft | 184 kts | 230° |
| 2026-04-22 21:39 | -18.34899 | -41.52653 | 10062 ft | 184 kts | 229° |
| 2026-04-22 21:39 | -18.35745 | -41.53668 | 10060 ft | 184 kts | 229° |
| 2026-04-22 21:39 | -18.36576 | -41.54666 | 10058 ft | 184 kts | 230° |
| 2026-04-22 21:39 | -18.37421 | -41.55680 | 10057 ft | 184 kts | 230° |
| 2026-04-22 21:40 | -18.38265 | -41.56694 | 10060 ft | 183 kts | 229° |
| 2026-04-22 21:40 | -18.39109 | -41.57708 | 10059 ft | 183 kts | 229° |
| 2026-04-22 21:40 | -18.39951 | -41.58719 | 10060 ft | 184 kts | 230° |
| 2026-04-22 21:40 | -18.40793 | -41.59731 | 10059 ft | 184 kts | 230° |
| 2026-04-22 21:41 | -18.41624 | -41.60728 | 10057 ft | 184 kts | 230° |
| 2026-04-22 21:41 | -18.42466 | -41.61741 | 10059 ft | 184 kts | 230° |
| 2026-04-22 21:41 | -18.43308 | -41.62754 | 10056 ft | 183 kts | 230° |
| 2026-04-22 21:41 | -18.44151 | -41.63766 | 10056 ft | 183 kts | 230° |
| 2026-04-22 21:42 | -18.44994 | -41.64780 | 10056 ft | 184 kts | 230° |
| 2026-04-22 21:42 | -18.45837 | -41.65795 | 10058 ft | 184 kts | 229° |
| 2026-04-22 21:42 | -18.46680 | -41.66808 | 10056 ft | 183 kts | 230° |
| 2026-04-22 21:42 | -18.47519 | -41.67817 | 10056 ft | 183 kts | 229° |
| 2026-04-22 21:43 | -18.48351 | -41.68819 | 10056 ft | 183 kts | 230° |
| 2026-04-22 21:43 | -18.49192 | -41.69831 | 10057 ft | 183 kts | 230° |
| 2026-04-22 21:43 | -18.50032 | -41.70844 | 10055 ft | 184 kts | 229° |
| 2026-04-22 21:43 | -18.50879 | -41.71861 | 10054 ft | 184 kts | 229° |
| 2026-04-22 21:44 | -18.51722 | -41.72877 | 10054 ft | 183 kts | 229° |
| 2026-04-22 21:44 | -18.52561 | -41.73886 | 10052 ft | 183 kts | 229° |
| 2026-04-22 21:44 | -18.53400 | -41.74898 | 10053 ft | 183 kts | 229° |
| 2026-04-22 21:44 | -18.54229 | -41.75896 | 10054 ft | 183 kts | 229° |
| 2026-04-22 21:45 | -18.55070 | -41.76910 | 10049 ft | 184 kts | 229° |
| 2026-04-22 21:45 | -18.55912 | -41.77924 | 10050 ft | 184 kts | 230° |
| 2026-04-22 21:45 | -18.56755 | -41.78940 | 10052 ft | 184 kts | 229° |
| 2026-04-22 21:45 | -18.57599 | -41.79957 | 10053 ft | 184 kts | 230° |
| 2026-04-22 21:46 | -18.58439 | -41.80971 | 10051 ft | 184 kts | 230° |
| 2026-04-22 21:46 | -18.59272 | -41.81975 | 10050 ft | 184 kts | 229° |
| 2026-04-22 21:46 | -18.59874 | -41.82701 | 10052 ft | 184 kts | 230° |
| 2026-04-22 21:46 | -18.60717 | -41.83718 | 10054 ft | 184 kts | 230° |
| 2026-04-22 21:47 | -18.61561 | -41.84735 | 10051 ft | 184 kts | 230° |
| 2026-04-22 21:47 | -18.62403 | -41.85751 | 10045 ft | 184 kts | 230° |
| 2026-04-22 21:47 | -18.63244 | -41.86767 | 10048 ft | 184 kts | 230° |
| 2026-04-22 21:47 | -18.64088 | -41.87785 | 10044 ft | 184 kts | 230° |
| 2026-04-22 21:48 | -18.64931 | -41.88802 | 10048 ft | 184 kts | 230° |
| 2026-04-22 21:48 | -18.65772 | -41.89818 | 10046 ft | 184 kts | 230° |
| 2026-04-22 21:48 | -18.66615 | -41.90836 | 10047 ft | 184 kts | 229° |
| 2026-04-22 21:48 | -18.67457 | -41.91853 | 10045 ft | 184 kts | 230° |
| 2026-04-22 21:49 | -18.68292 | -41.92861 | 10046 ft | 184 kts | 229° |
| 2026-04-22 21:49 | -18.69135 | -41.93881 | 10047 ft | 184 kts | 230° |
| 2026-04-22 21:49 | -18.69976 | -41.94896 | 10049 ft | 184 kts | 230° |
| 2026-04-22 21:49 | -18.70821 | -41.95916 | 10047 ft | 184 kts | 230° |
| 2026-04-22 21:50 | -18.71649 | -41.96918 | 10047 ft | 184 kts | 229° |
| 2026-04-22 21:50 | -18.72493 | -41.97938 | 10046 ft | 184 kts | 229° |
| 2026-04-22 21:50 | -18.73337 | -41.98958 | 10050 ft | 184 kts | 229° |
| 2026-04-22 21:50 | -18.74180 | -41.99978 | 10052 ft | 184 kts | 230° |
| 2026-04-22 21:51 | -18.75023 | -42.00997 | 10049 ft | 184 kts | 229° |
| 2026-04-22 21:51 | -18.75863 | -42.02014 | 10047 ft | 184 kts | 230° |
| 2026-04-22 21:51 | -18.76698 | -42.03024 | 10049 ft | 184 kts | 229° |
| 2026-04-22 21:52 | -18.78382 | -42.05062 | 10050 ft | 184 kts | 229° |
| 2026-04-22 21:52 | -18.79226 | -42.06084 | 10056 ft | 184 kts | 229° |
| 2026-04-22 21:52 | -18.80067 | -42.07102 | 10054 ft | 184 kts | 229° |
| 2026-04-22 21:52 | -18.80909 | -42.08122 | 10050 ft | 184 kts | 229° |
| 2026-04-22 21:53 | -18.81742 | -42.09130 | 10052 ft | 184 kts | 229° |
| 2026-04-22 21:53 | -18.82583 | -42.10149 | 10051 ft | 184 kts | 230° |
| 2026-04-22 21:53 | -18.83424 | -42.11168 | 10055 ft | 184 kts | 229° |
| 2026-04-22 21:53 | -18.84267 | -42.12189 | 10056 ft | 185 kts | 230° |
| 2026-04-22 21:54 | -18.85111 | -42.13212 | 10059 ft | 184 kts | 229° |
| 2026-04-22 21:54 | -18.85953 | -42.14232 | 10053 ft | 184 kts | 229° |
| 2026-04-22 21:54 | -18.86798 | -42.15258 | 10057 ft | 184 kts | 229° |
| 2026-04-22 21:54 | -18.87641 | -42.16279 | 10056 ft | 184 kts | 229° |
| 2026-04-22 21:55 | -18.88485 | -42.17302 | 10057 ft | 184 kts | 229° |
| 2026-04-22 21:55 | -18.89327 | -42.18325 | 10055 ft | 184 kts | 229° |
| 2026-04-22 21:55 | -18.90160 | -42.19334 | 10055 ft | 184 kts | 229° |
| 2026-04-22 21:55 | -18.91004 | -42.20359 | 10055 ft | 184 kts | 229° |
| 2026-04-22 21:56 | -18.91846 | -42.21380 | 10059 ft | 184 kts | 229° |
| 2026-04-22 21:56 | -18.92692 | -42.22407 | 10059 ft | 185 kts | 229° |
| 2026-04-22 21:56 | -18.93535 | -42.23430 | 10058 ft | 185 kts | 229° |
| 2026-04-22 21:56 | -18.94378 | -42.24453 | 10057 ft | 184 kts | 229° |
| 2026-04-22 21:57 | -18.95222 | -42.25479 | 10060 ft | 184 kts | 229° |
| 2026-04-22 21:57 | -18.96054 | -42.26489 | 10061 ft | 184 kts | 229° |
| 2026-04-22 21:57 | -18.96896 | -42.27512 | 10063 ft | 185 kts | 229° |
| 2026-04-22 21:57 | -18.97740 | -42.28538 | 10063 ft | 185 kts | 229° |
| 2026-04-22 21:58 | -18.98584 | -42.29563 | 10062 ft | 185 kts | 229° |
| 2026-04-22 21:58 | -18.99429 | -42.30590 | 10063 ft | 185 kts | 229° |
| 2026-04-22 21:58 | -19.00271 | -42.31614 | 10065 ft | 184 kts | 229° |
| 2026-04-22 21:58 | -19.01104 | -42.32627 | 10064 ft | 184 kts | 229° |
| 2026-04-22 21:59 | -19.01947 | -42.33652 | 10058 ft | 184 kts | 229° |
| 2026-04-22 21:59 | -19.02791 | -42.34678 | 10062 ft | 184 kts | 229° |
| 2026-04-22 21:59 | -19.03633 | -42.35702 | 10062 ft | 185 kts | 229° |
| 2026-04-22 21:59 | -19.04477 | -42.36728 | 10063 ft | 185 kts | 229° |
| 2026-04-22 22:00 | -19.05321 | -42.37756 | 10065 ft | 184 kts | 229° |
| 2026-04-22 22:00 | -19.06163 | -42.38781 | 10065 ft | 184 kts | 229° |
| 2026-04-22 22:00 | -19.06996 | -42.39794 | 10069 ft | 184 kts | 229° |
| 2026-04-22 22:00 | -19.07839 | -42.40820 | 10067 ft | 184 kts | 229° |
| 2026-04-22 22:01 | -19.08681 | -42.41845 | 10063 ft | 184 kts | 229° |
| 2026-04-22 22:01 | -19.09520 | -42.42868 | 10064 ft | 184 kts | 229° |
| 2026-04-22 22:01 | -19.10354 | -42.43885 | 10064 ft | 184 kts | 230° |
| 2026-04-22 22:01 | -19.11105 | -42.44990 | 10063 ft | 184 kts | 236° |
| 2026-04-22 22:02 | -19.11825 | -42.46108 | 10062 ft | 184 kts | 236° |
| 2026-04-22 22:02 | -19.12551 | -42.47224 | 10066 ft | 184 kts | 236° |
| 2026-04-22 22:02 | -19.13276 | -42.48340 | 10067 ft | 184 kts | 236° |
| 2026-04-22 22:02 | -19.13989 | -42.49439 | 10065 ft | 184 kts | 236° |
| 2026-04-22 22:03 | -19.14724 | -42.50572 | 10073 ft | 184 kts | 236° |
| 2026-04-22 22:03 | -19.15440 | -42.51678 | 10067 ft | 184 kts | 236° |
| 2026-04-22 22:03 | -19.16163 | -42.52793 | 10067 ft | 184 kts | 236° |
| 2026-04-22 22:03 | -19.16888 | -42.53912 | 10069 ft | 184 kts | 236° |
| 2026-04-22 22:04 | -19.17612 | -42.55028 | 10069 ft | 184 kts | 236° |
| 2026-04-22 22:04 | -19.18334 | -42.56143 | 10067 ft | 184 kts | 236° |
| 2026-04-22 22:04 | -19.19058 | -42.57261 | 10070 ft | 184 kts | 236° |
| 2026-04-22 22:04 | -19.19780 | -42.58376 | 10071 ft | 184 kts | 236° |
| 2026-04-22 22:05 | -19.20504 | -42.59494 | 10068 ft | 184 kts | 236° |
| 2026-04-22 22:05 | -19.21217 | -42.60595 | 10070 ft | 184 kts | 236° |
| 2026-04-22 22:05 | -19.21948 | -42.61726 | 10070 ft | 184 kts | 236° |
| 2026-04-22 22:05 | -19.22660 | -42.62826 | 10071 ft | 184 kts | 236° |
| 2026-04-22 22:06 | -19.23383 | -42.63942 | 10071 ft | 184 kts | 236° |
| 2026-04-22 22:06 | -19.24102 | -42.65053 | 10071 ft | 184 kts | 236° |
| 2026-04-22 22:06 | -19.24825 | -42.66172 | 10073 ft | 184 kts | 236° |
| 2026-04-22 22:06 | -19.25547 | -42.67289 | 10074 ft | 184 kts | 236° |
| 2026-04-22 22:07 | -19.26270 | -42.68407 | 10072 ft | 184 kts | 236° |
| 2026-04-22 22:07 | -19.26993 | -42.69524 | 10072 ft | 184 kts | 236° |
| 2026-04-22 22:07 | -19.27716 | -42.70644 | 10074 ft | 184 kts | 236° |
| 2026-04-22 22:07 | -19.28438 | -42.71762 | 10080 ft | 184 kts | 236° |
| 2026-04-22 22:08 | -19.29155 | -42.72871 | 10078 ft | 184 kts | 236° |
| 2026-04-22 22:08 | -19.29877 | -42.73990 | 10078 ft | 184 kts | 236° |
| 2026-04-22 22:08 | -19.30599 | -42.75106 | 10079 ft | 184 kts | 236° |
| 2026-04-22 22:08 | -19.31321 | -42.76224 | 10079 ft | 184 kts | 236° |
| 2026-04-22 22:09 | -19.32045 | -42.77346 | 10080 ft | 184 kts | 236° |
| 2026-04-22 22:09 | -19.32768 | -42.78467 | 10082 ft | 183 kts | 236° |
| 2026-04-22 22:09 | -19.33487 | -42.79580 | 10067 ft | 183 kts | 236° |
| 2026-04-22 22:09 | -19.34201 | -42.80687 | 9979 ft | 181 kts | 236° |
| 2026-04-22 22:10 | -19.34901 | -42.81772 | 9867 ft | 182 kts | 236° |
| 2026-04-22 22:10 | -19.35626 | -42.82896 | 9747 ft | 183 kts | 236° |
| 2026-04-22 22:10 | -19.36336 | -42.83997 | 9632 ft | 184 kts | 236° |
| 2026-04-22 22:10 | -19.37061 | -42.85122 | 9511 ft | 185 kts | 236° |
| 2026-04-22 22:11 | -19.37789 | -42.86252 | 9382 ft | 186 kts | 236° |
| 2026-04-22 22:11 | -19.38519 | -42.87384 | 9269 ft | 186 kts | 236° |
| 2026-04-22 22:11 | -19.39005 | -42.88138 | 9183 ft | 187 kts | 236° |
| 2026-04-22 22:11 | -19.39740 | -42.89278 | 9061 ft | 187 kts | 236° |
| 2026-04-22 22:12 | -19.40715 | -42.90792 | 8896 ft | 188 kts | 236° |
| 2026-04-22 22:12 | -19.41205 | -42.91553 | 8810 ft | 188 kts | 236° |
| 2026-04-22 22:12 | -19.41944 | -42.92701 | 8687 ft | 188 kts | 236° |
| 2026-04-22 22:12 | -19.42680 | -42.93844 | 8563 ft | 187 kts | 236° |
| 2026-04-22 22:13 | -19.43413 | -42.94982 | 8437 ft | 186 kts | 236° |
| 2026-04-22 22:13 | -19.44143 | -42.96116 | 8316 ft | 186 kts | 236° |
| 2026-04-22 22:13 | -19.44863 | -42.97236 | 8193 ft | 186 kts | 235° |
| 2026-04-22 22:13 | -19.45591 | -42.98367 | 8071 ft | 185 kts | 236° |
| 2026-04-22 22:14 | -19.46318 | -42.99497 | 7947 ft | 185 kts | 235° |
| 2026-04-22 22:14 | -19.47045 | -43.00628 | 7826 ft | 185 kts | 235° |
| 2026-04-22 22:14 | -19.47773 | -43.01760 | 7702 ft | 186 kts | 235° |
| 2026-04-22 22:14 | -19.48502 | -43.02894 | 7578 ft | 186 kts | 235° |
| 2026-04-22 22:15 | -19.49231 | -43.04028 | 7453 ft | 186 kts | 235° |
| 2026-04-22 22:15 | -19.49960 | -43.05163 | 7334 ft | 186 kts | 235° |
| 2026-04-22 22:15 | -19.50679 | -43.06281 | 7212 ft | 186 kts | 235° |
| 2026-04-22 22:15 | -19.51408 | -43.07417 | 7089 ft | 187 kts | 235° |
| 2026-04-22 22:16 | -19.52141 | -43.08557 | 6966 ft | 187 kts | 235° |
| 2026-04-22 22:16 | -19.52873 | -43.09698 | 6841 ft | 187 kts | 235° |
| 2026-04-22 22:16 | -19.53607 | -43.10841 | 6717 ft | 187 kts | 235° |
| 2026-04-22 22:16 | -19.54340 | -43.11982 | 6592 ft | 187 kts | 235° |
| 2026-04-22 22:17 | -19.55076 | -43.13129 | 6466 ft | 188 kts | 235° |
| 2026-04-22 22:17 | -19.55805 | -43.14266 | 6338 ft | 188 kts | 235° |
| 2026-04-22 22:17 | -19.56545 | -43.15419 | 6171 ft | 191 kts | 235° |
| 2026-04-22 22:17 | -19.57298 | -43.16593 | 5982 ft | 192 kts | 235° |
| 2026-04-22 22:18 | -19.58032 | -43.17739 | 5827 ft | 184 kts | 234° |
| 2026-04-22 22:18 | -19.58738 | -43.18839 | 5708 ft | 177 kts | 234° |
| 2026-04-22 22:18 | -19.59427 | -43.19913 | 5588 ft | 176 kts | 234° |
| 2026-04-22 22:18 | -19.60110 | -43.20989 | 5478 ft | 176 kts | 238° |
| 2026-04-22 22:19 | -19.60553 | -43.22155 | 5472 ft | 170 kts | 250° |
| 2026-04-22 22:19 | -19.60948 | -43.23328 | 5466 ft | 167 kts | 249° |
| 2026-04-22 22:19 | -19.61345 | -43.24476 | 5456 ft | 166 kts | 248° |
| 2026-04-22 22:19 | -19.61740 | -43.25629 | 5466 ft | 167 kts | 248° |
| 2026-04-22 22:20 | -19.62137 | -43.26791 | 5464 ft | 169 kts | 249° |
| 2026-04-22 22:20 | -19.62538 | -43.27967 | 5469 ft | 169 kts | 248° |
| 2026-04-22 22:20 | -19.62940 | -43.29146 | 5475 ft | 171 kts | 249° |
| 2026-04-22 22:20 | -19.63341 | -43.30322 | 5471 ft | 172 kts | 249° |
| 2026-04-22 22:21 | -19.63752 | -43.31525 | 5478 ft | 173 kts | 249° |
| 2026-04-22 22:21 | -19.64163 | -43.32730 | 5482 ft | 174 kts | 249° |
| 2026-04-22 22:21 | -19.64572 | -43.33934 | 5472 ft | 172 kts | 249° |
| 2026-04-22 22:21 | -19.64978 | -43.35120 | 5479 ft | 171 kts | 249° |
| 2026-04-22 22:22 | -19.65382 | -43.36305 | 5477 ft | 171 kts | 249° |
| 2026-04-22 22:22 | -19.65781 | -43.37475 | 5477 ft | 171 kts | 249° |
| 2026-04-22 22:22 | -19.66187 | -43.38667 | 5477 ft | 173 kts | 249° |
| 2026-04-22 22:22 | -19.66596 | -43.39870 | 5483 ft | 174 kts | 249° |
| 2026-04-22 22:23 | -19.67008 | -43.41078 | 5483 ft | 174 kts | 249° |
| 2026-04-22 22:23 | -19.67421 | -43.42290 | 5484 ft | 175 kts | 249° |
| 2026-04-22 22:23 | -19.67833 | -43.43503 | 5484 ft | 174 kts | 249° |
| 2026-04-22 22:23 | -19.68244 | -43.44712 | 5487 ft | 175 kts | 249° |
| 2026-04-22 22:24 | -19.68658 | -43.45927 | 5484 ft | 175 kts | 249° |
| 2026-04-22 22:24 | -19.69073 | -43.47148 | 5486 ft | 176 kts | 249° |
| 2026-04-22 22:24 | -19.69489 | -43.48370 | 5482 ft | 176 kts | 249° |
| 2026-04-22 22:24 | -19.69905 | -43.49596 | 5484 ft | 176 kts | 249° |
| 2026-04-22 22:25 | -19.70315 | -43.50805 | 5484 ft | 176 kts | 249° |
| 2026-04-22 22:25 | -19.70731 | -43.52029 | 5482 ft | 176 kts | 249° |
| 2026-04-22 22:25 | -19.71146 | -43.53250 | 5488 ft | 176 kts | 249° |
| 2026-04-22 22:25 | -19.71559 | -43.54464 | 5483 ft | 176 kts | 249° |
| 2026-04-22 22:26 | -19.71951 | -43.55622 | 5455 ft | 179 kts | 249° |
| 2026-04-22 22:26 | -19.72376 | -43.56872 | 5399 ft | 181 kts | 249° |
| 2026-04-22 22:26 | -19.72803 | -43.58130 | 5330 ft | 177 kts | 249° |
| 2026-04-22 22:26 | -19.73212 | -43.59340 | 5247 ft | 173 kts | 249° |
| 2026-04-22 22:27 | -19.73615 | -43.60527 | 5176 ft | 168 kts | 249° |
| 2026-04-22 22:27 | -19.74006 | -43.61682 | 5105 ft | 164 kts | 249° |
| 2026-04-22 22:27 | -19.74391 | -43.62814 | 5038 ft | 162 kts | 248° |
| 2026-04-22 22:27 | -19.74772 | -43.63941 | 4971 ft | 164 kts | 249° |
| 2026-04-22 22:28 | -19.75168 | -43.65104 | 4899 ft | 169 kts | 248° |
| 2026-04-22 22:28 | -19.75433 | -43.65888 | 4853 ft | 172 kts | 249° |
| 2026-04-22 22:29 | -19.76546 | -43.70021 | 4697 ft | 174 kts | 260° |
| 2026-04-22 22:29 | -19.76763 | -43.71277 | 4693 ft | 171 kts | 253° |
| 2026-04-22 22:29 | -19.77128 | -43.72474 | 4691 ft | 169 kts | 250° |
| 2026-04-22 22:29 | -19.77506 | -43.73654 | 4690 ft | 170 kts | 250° |
| 2026-04-22 22:30 | -19.77883 | -43.74827 | 4687 ft | 170 kts | 250° |
| 2026-04-22 22:30 | -19.78274 | -43.76025 | 4692 ft | 172 kts | 250° |
| 2026-04-22 22:30 | -19.78665 | -43.77231 | 4694 ft | 173 kts | 249° |
| 2026-04-22 22:30 | -19.79057 | -43.78438 | 4698 ft | 173 kts | 250° |
| 2026-04-22 22:31 | -19.79448 | -43.79644 | 4698 ft | 173 kts | 250° |
| 2026-04-22 22:31 | -19.79712 | -43.80463 | 4702 ft | 173 kts | 250° |
| 2026-04-22 22:31 | -19.80234 | -43.82070 | 4697 ft | 174 kts | 250° |
| 2026-04-22 22:31 | -19.80632 | -43.83284 | 4703 ft | 175 kts | 250° |
| 2026-04-22 22:32 | -19.81035 | -43.84510 | 4705 ft | 175 kts | 250° |
| 2026-04-22 22:32 | -19.81435 | -43.85733 | 4706 ft | 175 kts | 250° |
| 2026-04-22 22:32 | -19.81836 | -43.86956 | 4705 ft | 175 kts | 250° |
| 2026-04-22 22:32 | -19.82234 | -43.88176 | 4707 ft | 175 kts | 250° |
| 2026-04-22 22:33 | -19.82633 | -43.89394 | 4709 ft | 174 kts | 251° |
| 2026-04-22 22:33 | -19.82611 | -43.90655 | 4703 ft | 174 kts | 290° |
| 2026-04-22 22:33 | -19.82111 | -43.91832 | 4706 ft | 175 kts | 295° |
| 2026-04-22 22:33 | -19.81612 | -43.92980 | 4683 ft | 169 kts | 295° |
| 2026-04-22 22:34 | -19.81133 | -43.94085 | 4475 ft | 160 kts | 295° |
| 2026-04-22 22:34 | -19.80678 | -43.95135 | 4266 ft | 154 kts | 295° |
| 2026-04-22 22:34 | -19.80235 | -43.96155 | 4063 ft | 149 kts | 295° |
| 2026-04-22 22:34 | -19.79810 | -43.97136 | 3888 ft | 140 kts | 295° |
| 2026-04-22 22:35 | -19.79426 | -43.98043 | 3799 ft | 128 kts | 290° |
| 2026-04-22 22:35 | -19.79533 | -43.98893 | 3711 ft | 114 kts | 224° |
| 2026-04-22 22:35 | -19.80144 | -43.99391 | 3665 ft | 113 kts | 216° |
| 2026-04-22 22:35 | -19.80832 | -43.99830 | 3630 ft | 117 kts | 189° |
| 2026-04-22 22:36 | -19.81573 | -43.99730 | 3583 ft | 105 kts | 159° |
| 2026-04-22 22:36 | -19.82235 | -43.99427 | 3461 ft | 105 kts | 151° |
| 2026-04-22 22:36 | -19.82853 | -43.99037 | 3389 ft | 101 kts | 142° |
| 2026-04-22 22:36 | -19.83383 | -43.98532 | 3248 ft | 104 kts | 133° |
| 2026-04-22 22:37 | -19.83873 | -43.97957 | 3073 ft | 105 kts | 126° |
| 2026-04-22 22:37 | -19.84238 | -43.97292 | 2916 ft | 105 kts | 114° |
| 2026-04-22 22:37 | -19.84529 | -43.96584 | 2763 ft | 103 kts | 110° |
| 2026-04-22 22:37 | -19.84770 | -43.95875 | 2600 ft | 98 kts | 110° |
| 2026-04-22 22:38 | -19.84972 | -43.95315 | 2596 ft | 60 kts | 112° |
| 2026-04-22 22:38 | -19.85057 | -43.95078 | 2598 ft | 19 kts | 122° |
| 2026-04-22 22:38 | -19.85106 | -43.95119 | 2601 ft | 11 kts | 257° |
| 2026-04-22 22:38 | -19.85123 | -43.95228 | 2588 ft | 18 kts | 264° |
| 2026-04-22 22:39 | -19.85114 | -43.95361 | 2583 ft | 17 kts | 285° |
| 2026-04-22 22:39 | -19.85128 | -43.95426 | 2584 ft | 7 kts | 206° |
| 2026-04-22 22:39 | -19.85150 | -43.95416 | 2582 ft | 2 kts | 117° |
| 2026-04-22 22:39 | -19.85154 | -43.95403 | 2585 ft | 0 kts | 109° |